Impacts METAR Board
IDs:

KMIA - Miami Intl, FL, US

Updated at: 0800 UTC 19 Jun 2018
Potential Impact None Slight Moderate High
Time 18/20Z 18/21Z 18/22Z 18/23Z 19/00Z 19/01Z 19/02Z 19/03Z 19/04Z 19/05Z 19/06Z 19/07Z 19/08Z
Temp87 88 86 84 83 82 82 82 81 81 80 80 80
Dewpt75 72 72 73 73 74 74 74 74 74 75 75 74
Altim30.06 30.04 30.03 30.03 30.04 30.03 30.05 30.05 30.06 30.05 30.02 30.00 29.99
VIS10 10 10 10 10 10 10 10 10 10 10 10 10
CIG250 -- -- -- -- -- -- -- -- -- -- -- --
CoverBKNSCTSCTSCTSCTSCTFEWFEWFEWFEWFEWFEWFEW
FltCatVFRVFRVFRVFRVFRVFRVFRVFRVFRVFRVFRVFRVFR
WX--------------------------
WDir090709080508060502036036020
WSpd3 7 8 9 7 6 6 5 3 3 3 3 3
WGst-- 15 -- -- -- -- -- -- -- -- -- -- --
Raw hourly METARs
KMIA 181953Z VRB03KT 10SM SCT038 SCT070 SCT130 BKN250 31/24 A3006 RMK AO2 SLP177 T03060239
KMIA 182053Z 09007G15KT 10SM FEW036 FEW070 SCT130 SCT250 31/22 A3004 RMK AO2 SLP174 CB DSNT W MOV SW T03110222 58012
KMIA 182153Z 07008KT 10SM SCT036 SCT130 SCT250 30/22 A3003 RMK AO2 SLP170 T03000222
KMIA 182253Z 09009KT 10SM FEW025 FEW130 SCT250 29/23 A3003 RMK AO2 SLP168 T02890228
KMIA 182353Z 08007KT 10SM FEW026 FEW070 SCT250 28/23 A3004 RMK AO2 SLP172 T02830228 10311 20267 55001
KMIA 190053Z 05006KT 10SM FEW022 FEW070 SCT250 28/23 A3003 RMK AO2 SLP170 CONS LTGIC DSNT W CB DSNT W-NW T02780233 $
KMIA 190153Z 08006KT 10SM FEW027 28/23 A3005 RMK AO2 SLP174 T02780233 $
KMIA 190253Z 06005KT 10SM FEW024 28/23 A3005 RMK AO2 SLP176 T02780233 53004 $
KMIA 190353Z 05003KT 10SM FEW025 27/23 A3006 RMK AO2 SLP179 T02720233 $
KMIA 190453Z 02003KT 10SM FEW027 27/23 A3005 RMK AO2 SLP174 T02720233 403170250 $
KMIA 190553Z 36003KT 10SM FEW024 27/24 A3002 RMK AO2 SLP166 T02670239 10283 20267 58010 $
KMIA 190653Z 36003KT 10SM FEW025 27/24 A3000 RMK AO2 SLP160 T02670239 $
KMIA 190753Z 02003KT 10SM FEW025 27/23 A2999 RMK AO2 SLP156 T02670233 $



Page loaded:  08:54 UTC  |   01:54 AM Pacific  |   02:54 AM Mountain  |   03:54 AM Central  |   04:54 AM Eastern

 

ADVISORIES

FORECASTS

FORECASTS

OBSERVATIONS

USER TOOLS

ABOUT US